Amunt
Inicio > meteoXarxa
Fes-te'n soci

METEOXARXA

Vilafranca
Ubicació Ajuntament
Comarca l′Alt Maestrat
Altitud (msnm) 1145
Posició geogràfica 40° 25' 37.20" N, 00° 15' 29.16" W
Model Davis Vantage Pro2
Presa de dades
Font de les dades Valentin Miravet (Ajuntament)
Estadístiques. Resum
Data Temperatura (ºC) Humitat (%) Pressió (hPa) Vent (km/h) Precipit. (mm)
Mínima Mitjana Màxima Mínima Mitjana Màxima Mínima Mitjana Màxima Predom. Mitjana Ràfega màxima Total Dies de pluja
Mínima Mitjana Màxima Mínima Mitjana Màxima
Últimes dades diàries
21-01-2017 -0,1     0,2     0,4 98,0 98,5 99,0 1.017,0 1.019,0 1.021,0 40,0 5,2  
20-01-2017 -2,6     -1,2     0,1 96,0 97,0 98,0 1.019,0 1.021,0 1.023,0 18,0 25,8  
19-01-2017 -7,7     -5,2     -2,6 69,0 82,5 96,0 1.022,0 1.023,5 1.025,0 35,0 9,4  
18-01-2017 -9,2     -5,2     -1,3 38,0 60,5 83,0 1.019,0 1.022,0 1.025,0 29,0 0,0  
17-01-2017 -6,3     -0,8     4,8 31,0 54,0 77,0 1.010,0 1.014,5 1.019,0 87,0 0,0  
16-01-2017 0,9     3,9     6,9 65,0 79,0 93,0 1.013,0 1.018,0 1.023,0 61,0 5,0  
15-01-2017 -0,2     1,9     4,0 57,0 73,5 90,0 1.021,0 1.023,0 1.025,0 77,0 0,6  
14-01-2017 -1,2     0,6     2,3 48,0 63,0 78,0 1.020,0 1.022,5 1.025,0 50,0 0,0  
13-01-2017 -0,1     4,5     9,2 53,0 71,5 90,0 1.012,0 1.016,5 1.021,0 50,0 0,4  
12-01-2017 4,6     10,7     16,7 31,0 61,0 91,0 1.015,0 1.020,0 1.025,0 48,0 0,0  
11-01-2017 3,4     6,3     9,3 75,0 81,0 87,0 1.013,0 1.019,0 1.025,0 68,0 0,0  
10-01-2017 1,2     4,0     6,7 55,0 72,0 89,0 1.011,0 1.016,0 1.021,0 64,0 2,0  
09-01-2017 -0,8     4,2     9,2 52,0 70,0 88,0 1.021,0 1.024,0 1.027,0 32,0 0,0  
08-01-2017 -1,3     4,2     9,6 26,0 47,5 69,0 1.026,0 1.028,0 1.030,0 26,0 0,0  
07-01-2017 -1,0     4,3     9,7 31,0 43,0 55,0 1.029,0 1.030,0 1.031,0 16,0 0,0  
06-01-2017 -1,6     3,1     7,8 34,0 58,0 82,0 1.025,0 1.027,5 1.030,0 19,0 0,0  
05-01-2017 1,9     6,3     10,7 27,0 47,0 67,0 1.019,0 1.022,0 1.025,0 48,0 0,0  
04-01-2017 5,6     8,3     11,1 35,0 55,0 75,0 1.021,0 1.022,0 1.023,0 47,0 0,0  
03-01-2017 6,1     8,8     11,6 19,0 43,5 68,0 1.022,0 1.023,0 1.024,0 48,0 0,0  
02-01-2017 -2,9     2,6     8,1 35,0 64,5 94,0 1.021,0 1.022,0 1.023,0 10,0 0,0  
01-01-2017 -2,7     2,1     7,0 56,0 76,0 96,0 1.023,0 1.026,5 1.030,0 15,0 0,0  
31-12-2016 -0,4     3,5     7,4 62,0 79,0 96,0 1.030,0 1.032,0 1.034,0 21,0 0,0  
30-12-2016 -0,3     4,0     8,4 20,0 57,0 94,0 1.033,0 1.034,0 1.035,0 13,0 0,0  
29-12-2016 0,8     8,7     16,5 6,0 26,5 47,0 1.033,0 1.034,5 1.036,0 16,0 0,0  
28-12-2016 0,9     7,2     13,4 18,0 45,5 73,0 1.035,0 1.036,5 1.038,0 10,0 0,0  
27-12-2016 2,5     7,7     12,9 34,0 55,5 77,0 1.031,0 1.033,0 1.035,0 19,0 0,0  
26-12-2016 4,8     11,1     17,4 20,0 43,5 67,0 1.029,0 1.030,5 1.032,0 15,0 0,0  
25-12-2016 1,5     8,2     14,8 40,0 66,5 93,0 1.032,0 1.034,5 1.037,0 27,0 0,0  
24-12-2016 3,6     6,5     9,3 70,0 81,5 93,0 1.035,0 1.036,5 1.038,0 40,0 0,0  
23-12-2016 4,0     6,6     9,2 76,0 85,5 95,0 1.035,0 1.035,5 1.036,0 34,0 0,0  
22-12-2016 0,4     4,7     8,9 70,0 81,5 93,0 1.031,0 1.033,5 1.036,0 24,0 0,0  
21-12-2016 1,2     4,5     7,7 66,0 79,5 93,0 1.021,0 1.026,0 1.031,0 48,0 0,0  
Dades del mes en curs (actualitzades fins l'últim dia disponible)
01/2017 -9,2 -0,7 6,1 3,0 -2,6 6,7 16,7 19,0 66,6 99,0 1.010,0 1.021,9 1.031,0   87,0 48,4  
Últimes dades mensuals
12/2016 -0,7 2,1 6,9 5,9 2,4 9,6 17,4 26,5 78,4 97,5 1.015,0 1.027,6 1.036,5 48,0 72,4 6
11/2016 -1,7 4,0 10,9 7,5 5,7 11,1 20,9 39,0 74,1 97,0 1.002,0 1.015,6 1.030,0 66,0 93,2 10
10/2016 4,0 9,0 12,2 13,1 10,8 17,2 24,2 40,5 76,6 94,5 1.001,0 1.016,5 1.029,5 45,0 18,4 8
09/2016 8,1 12,0 19,8 16,2 15,6 20,5 32,2 30,0 69,3 91,0 1.010,5 1.017,1 1.026,5 48,0 71,6 7
08/2016 7,3 13,9 18,4 19,5 15,9 25,0 29,1 52,5 63,1 77,0 1.009,0 1.016,7 1.023,0 47,0 12,8 6
07/2016 6,2 14,6 19,8 20,1 20,1 25,6 32,2 38,0 60,3 79,5 1.010,5 1.015,8 1.021,0 47,0 19,2 6
06/2016 7,4 12,0 17,9 17,0 15,8 22,1 27,4 41,5 61,0 84,5 1.001,0 1.014,5 1.024,0 55,0 129,8 11
05/2016 -0,8 7,2 12,1 11,6 8,7 15,9 22,6 43,0 69,0 99,5 1.005,0 1.013,6 1.023,5 79,0 47,2 9
04/2016 -0,5 4,3 9,1 8,4 6,7 12,5 18,1 50,5 69,1 94,0 1.005,5 1.013,0 1.019,0 74,0 45,6 13
03/2016 -3,4 1,9 7,4 5,7 3,3 9,5 18,7 49,0 69,4 98,5 1.003,0 1.014,4 1.025,0 85,0 37,0 8
02/2016 -7,2 1,7 10,1 5,9 2,3 10,2 16,1 37,5 64,3 87,5 990,5 1.016,6 1.035,0 122,0 15,0 10
01/2016 -2,7 3,0 9,6 6,8 2,3 10,6 15,4 50,5 69,1 87,5 1.002,0 1.020,0 1.032,5 108,0 5,6 7
12/2015 0,8 4,1 9,9 8,7 8,8 13,4 17,8 40,5 66,4 89,0 1.022,5 1.029,5 1.035,5 35,0 0,6 3
Dades de l'any en curs (actualitzades fins l'últim dia disponible)
2017 -9,2 -0,7 6,1 3,0 -2,6 6,7 16,7 19,0 66,6 99,0 1.010,0 1.021,9 1.031,0   87,0 48,4  
Últimes dades anuals
2015 -6,4 7,5 13,4 11,9 13,0 16,2 33,7 56,9 65,7 75,5 1.013,5 1.018,4 1.029,5 116,0 649,2 94